sensor_id;sensor_type;location;lat;lon;timestamp;P1;durP1;ratioP1;P2;durP2;ratioP2
69532;SDS011;56729;52.036;5.332;2022-12-18T00:00:18;15.88;;;8.07;;
69532;SDS011;56729;52.036;5.332;2022-12-18T00:01:25;12.43;;;7.95;;
69532;SDS011;56729;52.036;5.332;2022-12-18T00:02:32;10.05;;;6.80;;
69532;SDS011;56729;52.036;5.332;2022-12-18T00:03:34;13.02;;;10.18;;
69532;SDS011;56729;52.036;5.332;2022-12-18T00:04:38;18.20;;;12.82;;
69532;SDS011;56729;52.036;5.332;2022-12-18T00:05:49;13.38;;;8.68;;
69532;SDS011;56729;52.036;5.332;2022-12-18T00:06:52;15.52;;;8.57;;
69532;SDS011;56729;52.036;5.332;2022-12-18T00:07:55;14.40;;;8.73;;
69532;SDS011;56729;52.036;5.332;2022-12-18T00:08:57;13.25;;;9.38;;
69532;SDS011;56729;52.036;5.332;2022-12-18T00:10:00;14.82;;;8.40;;
69532;SDS011;56729;52.036;5.332;2022-12-18T00:11:06;23.15;;;10.32;;
69532;SDS011;56729;52.036;5.332;2022-12-18T00:12:09;14.60;;;8.93;;
69532;SDS011;56729;52.036;5.332;2022-12-18T00:13:15;12.02;;;9.57;;
69532;SDS011;56729;52.036;5.332;2022-12-18T00:14:17;15.57;;;8.20;;
69532;SDS011;56729;52.036;5.332;2022-12-18T00:15:20;13.68;;;8.52;;
69532;SDS011;56729;52.036;5.332;2022-12-18T00:16:23;22.70;;;13.00;;
69532;SDS011;56729;52.036;5.332;2022-12-18T00:17:26;19.27;;;10.07;;
69532;SDS011;56729;52.036;5.332;2022-12-18T00:18:28;14.65;;;8.10;;
69532;SDS011;56729;52.036;5.332;2022-12-18T00:19:30;17.38;;;8.68;;
69532;SDS011;56729;52.036;5.332;2022-12-18T00:20:36;16.75;;;9.48;;
69532;SDS011;56729;52.036;5.332;2022-12-18T00:21:39;11.90;;;10.20;;
69532;SDS011;56729;52.036;5.332;2022-12-18T00:22:42;12.55;;;8.40;;
69532;SDS011;56729;52.036;5.332;2022-12-18T00:23:46;12.20;;;6.72;;
69532;SDS011;56729;52.036;5.332;2022-12-18T00:24:48;17.80;;;10.05;;
69532;SDS011;56729;52.036;5.332;2022-12-18T00:25:51;19.55;;;8.82;;
69532;SDS011;56729;52.036;5.332;2022-12-18T00:26:54;13.40;;;8.95;;
69532;SDS011;56729;52.036;5.332;2022-12-18T00:27:56;14.98;;;9.82;;
69532;SDS011;56729;52.036;5.332;2022-12-18T00:29:10;14.38;;;10.55;;
69532;SDS011;56729;52.036;5.332;2022-12-18T00:30:14;17.25;;;9.20;;
69532;SDS011;56729;52.036;5.332;2022-12-18T00:31:18;18.77;;;10.13;;
69532;SDS011;56729;52.036;5.332;2022-12-18T00:32:22;14.00;;;8.07;;
69532;SDS011;56729;52.036;5.332;2022-12-18T00:33:24;24.38;;;10.65;;
69532;SDS011;56729;52.036;5.332;2022-12-18T00:34:26;15.20;;;8.18;;
69532;SDS011;56729;52.036;5.332;2022-12-18T00:35:27;19.25;;;10.93;;
69532;SDS011;56729;52.036;5.332;2022-12-18T00:36:31;23.08;;;12.27;;
69532;SDS011;56729;52.036;5.332;2022-12-18T00:37:35;13.77;;;8.27;;
69532;SDS011;56729;52.036;5.332;2022-12-18T00:38:38;13.07;;;7.45;;
69532;SDS011;56729;52.036;5.332;2022-12-18T00:39:41;17.42;;;9.55;;
69532;SDS011;56729;52.036;5.332;2022-12-18T00:40:42;21.95;;;9.13;;
69532;SDS011;56729;52.036;5.332;2022-12-18T00:41:46;14.40;;;7.13;;
69532;SDS011;56729;52.036;5.332;2022-12-18T00:43:08;12.43;;;8.93;;
69532;SDS011;56729;52.036;5.332;2022-12-18T00:44:11;16.00;;;8.02;;
69532;SDS011;56729;52.036;5.332;2022-12-18T00:45:15;19.38;;;9.35;;
69532;SDS011;56729;52.036;5.332;2022-12-18T00:46:17;18.42;;;7.75;;
69532;SDS011;56729;52.036;5.332;2022-12-18T00:47:19;24.80;;;9.60;;
69532;SDS011;56729;52.036;5.332;2022-12-18T00:48:21;12.32;;;9.23;;
69532;SDS011;56729;52.036;5.332;2022-12-18T00:49:23;12.80;;;7.97;;
69532;SDS011;56729;52.036;5.332;2022-12-18T00:50:25;18.85;;;8.98;;
69532;SDS011;56729;52.036;5.332;2022-12-18T00:51:28;13.25;;;8.80;;
69532;SDS011;56729;52.036;5.332;2022-12-18T00:52:30;15.25;;;10.95;;
69532;SDS011;56729;52.036;5.332;2022-12-18T00:53:32;8.23;;;5.90;;
69532;SDS011;56729;52.036;5.332;2022-12-18T00:54:34;14.05;;;8.43;;
69532;SDS011;56729;52.036;5.332;2022-12-18T00:55:37;17.90;;;8.02;;
69532;SDS011;56729;52.036;5.332;2022-12-18T00:56:40;14.00;;;12.20;;
69532;SDS011;56729;52.036;5.332;2022-12-18T00:57:51;15.35;;;10.48;;
69532;SDS011;56729;52.036;5.332;2022-12-18T00:58:54;14.63;;;6.38;;
69532;SDS011;56729;52.036;5.332;2022-12-18T00:59:56;15.57;;;10.43;;
69532;SDS011;56729;52.036;5.332;2022-12-18T01:00:58;15.88;;;10.68;;
69532;SDS011;56729;52.036;5.332;2022-12-18T01:02:01;17.67;;;10.45;;
69532;SDS011;56729;52.036;5.332;2022-12-18T01:03:03;14.52;;;9.70;;
69532;SDS011;56729;52.036;5.332;2022-12-18T01:04:05;17.50;;;9.77;;
69532;SDS011;56729;52.036;5.332;2022-12-18T01:05:08;12.50;;;9.15;;
69532;SDS011;56729;52.036;5.332;2022-12-18T01:06:11;14.80;;;7.90;;
69532;SDS011;56729;52.036;5.332;2022-12-18T01:07:17;12.40;;;8.45;;
69532;SDS011;56729;52.036;5.332;2022-12-18T01:08:19;14.23;;;10.18;;
69532;SDS011;56729;52.036;5.332;2022-12-18T01:09:21;12.93;;;8.40;;
69532;SDS011;56729;52.036;5.332;2022-12-18T01:10:25;15.80;;;9.73;;
69532;SDS011;56729;52.036;5.332;2022-12-18T01:11:31;17.95;;;9.98;;
69532;SDS011;56729;52.036;5.332;2022-12-18T01:12:34;12.43;;;8.73;;
69532;SDS011;56729;52.036;5.332;2022-12-18T01:13:38;13.93;;;8.85;;
69532;SDS011;56729;52.036;5.332;2022-12-18T01:14:42;13.10;;;8.35;;
69532;SDS011;56729;52.036;5.332;2022-12-18T01:15:48;14.80;;;8.60;;
69532;SDS011;56729;52.036;5.332;2022-12-18T01:16:50;16.17;;;7.90;;
69532;SDS011;56729;52.036;5.332;2022-12-18T01:17:52;11.48;;;8.15;;
69532;SDS011;56729;52.036;5.332;2022-12-18T01:18:55;18.27;;;9.80;;
69532;SDS011;56729;52.036;5.332;2022-12-18T01:19:57;22.30;;;8.27;;
69532;SDS011;56729;52.036;5.332;2022-12-18T01:21:00;15.32;;;11.45;;
69532;SDS011;56729;52.036;5.332;2022-12-18T01:22:03;14.15;;;8.68;;
69532;SDS011;56729;52.036;5.332;2022-12-18T01:23:04;13.07;;;8.25;;
69532;SDS011;56729;52.036;5.332;2022-12-18T01:24:09;20.60;;;9.77;;
69532;SDS011;56729;52.036;5.332;2022-12-18T01:25:13;14.45;;;5.88;;
69532;SDS011;56729;52.036;5.332;2022-12-18T01:26:17;14.60;;;7.43;;
69532;SDS011;56729;52.036;5.332;2022-12-18T01:27:19;18.67;;;9.25;;
69532;SDS011;56729;52.036;5.332;2022-12-18T01:28:20;16.15;;;8.85;;
69532;SDS011;56729;52.036;5.332;2022-12-18T01:29:22;12.70;;;6.13;;
69532;SDS011;56729;52.036;5.332;2022-12-18T01:30:25;12.88;;;6.30;;
69532;SDS011;56729;52.036;5.332;2022-12-18T01:31:27;13.45;;;7.07;;
69532;SDS011;56729;52.036;5.332;2022-12-18T01:32:32;12.00;;;8.13;;
69532;SDS011;56729;52.036;5.332;2022-12-18T01:33:36;15.52;;;9.27;;
69532;SDS011;56729;52.036;5.332;2022-12-18T01:34:40;14.32;;;8.35;;
69532;SDS011;56729;52.036;5.332;2022-12-18T01:35:42;16.15;;;9.82;;
69532;SDS011;56729;52.036;5.332;2022-12-18T01:36:44;13.77;;;7.25;;
69532;SDS011;56729;52.036;5.332;2022-12-18T01:37:45;14.32;;;9.40;;
69532;SDS011;56729;52.036;5.332;2022-12-18T01:38:49;11.60;;;5.95;;
69532;SDS011;56729;52.036;5.332;2022-12-18T01:39:52;13.68;;;8.35;;
69532;SDS011;56729;52.036;5.332;2022-12-18T01:40:59;11.73;;;7.70;;
69532;SDS011;56729;52.036;5.332;2022-12-18T01:42:02;16.25;;;8.10;;
69532;SDS011;56729;52.036;5.332;2022-12-18T01:43:04;17.77;;;8.63;;
69532;SDS011;56729;52.036;5.332;2022-12-18T01:44:46;11.70;;;8.02;;
69532;SDS011;56729;52.036;5.332;2022-12-18T01:45:46;13.73;;;6.57;;
69532;SDS011;56729;52.036;5.332;2022-12-18T01:46:51;12.07;;;7.18;;
69532;SDS011;56729;52.036;5.332;2022-12-18T01:48:00;9.98;;;6.95;;
69532;SDS011;56729;52.036;5.332;2022-12-18T01:49:06;13.25;;;8.10;;
69532;SDS011;56729;52.036;5.332;2022-12-18T01:51:24;12.45;;;7.65;;
69532;SDS011;56729;52.036;5.332;2022-12-18T01:52:29;15.05;;;8.23;;
69532;SDS011;56729;52.036;5.332;2022-12-18T01:53:33;13.38;;;7.78;;
69532;SDS011;56729;52.036;5.332;2022-12-18T01:54:37;13.40;;;7.70;;
69532;SDS011;56729;52.036;5.332;2022-12-18T01:55:41;10.40;;;5.40;;
69532;SDS011;56729;52.036;5.332;2022-12-18T01:56:51;14.95;;;8.73;;
69532;SDS011;56729;52.036;5.332;2022-12-18T01:57:54;8.38;;;6.00;;
69532;SDS011;56729;52.036;5.332;2022-12-18T01:59:03;13.82;;;7.50;;
69532;SDS011;56729;52.036;5.332;2022-12-18T02:00:10;12.32;;;9.60;;
69532;SDS011;56729;52.036;5.332;2022-12-18T02:01:15;13.55;;;7.75;;
69532;SDS011;56729;52.036;5.332;2022-12-18T02:02:18;22.45;;;8.60;;
69532;SDS011;56729;52.036;5.332;2022-12-18T02:03:22;12.15;;;8.43;;
69532;SDS011;56729;52.036;5.332;2022-12-18T02:04:25;12.50;;;8.20;;
69532;SDS011;56729;52.036;5.332;2022-12-18T02:06:03;14.18;;;7.82;;
69532;SDS011;56729;52.036;5.332;2022-12-18T02:09:58;16.65;;;8.63;;
69532;SDS011;56729;52.036;5.332;2022-12-18T02:14:11;11.77;;;7.07;;
69532;SDS011;56729;52.036;5.332;2022-12-18T02:15:26;12.45;;;8.48;;
69532;SDS011;56729;52.036;5.332;2022-12-18T02:16:48;12.70;;;8.25;;
69532;SDS011;56729;52.036;5.332;2022-12-18T02:17:57;15.90;;;11.13;;
69532;SDS011;56729;52.036;5.332;2022-12-18T02:22:29;11.85;;;6.30;;
69532;SDS011;56729;52.036;5.332;2022-12-18T02:26:50;12.73;;;7.40;;
69532;SDS011;56729;52.036;5.332;2022-12-18T02:28:06;9.70;;;6.38;;
69532;SDS011;56729;52.036;5.332;2022-12-18T02:29:15;14.57;;;7.75;;
69532;SDS011;56729;52.036;5.332;2022-12-18T02:30:22;10.48;;;6.45;;
69532;SDS011;56729;52.036;5.332;2022-12-18T02:31:25;18.02;;;9.55;;
69532;SDS011;56729;52.036;5.332;2022-12-18T02:32:40;12.40;;;8.35;;
69532;SDS011;56729;52.036;5.332;2022-12-18T02:33:44;17.65;;;7.88;;
69532;SDS011;56729;52.036;5.332;2022-12-18T02:34:47;17.10;;;6.88;;
69532;SDS011;56729;52.036;5.332;2022-12-18T02:35:52;15.50;;;8.52;;
69532;SDS011;56729;52.036;5.332;2022-12-18T02:37:00;15.65;;;8.35;;
69532;SDS011;56729;52.036;5.332;2022-12-18T02:38:07;11.77;;;6.63;;
69532;SDS011;56729;52.036;5.332;2022-12-18T02:39:11;12.75;;;7.63;;
69532;SDS011;56729;52.036;5.332;2022-12-18T02:40:24;12.73;;;8.27;;
69532;SDS011;56729;52.036;5.332;2022-12-18T02:41:29;14.30;;;7.85;;
69532;SDS011;56729;52.036;5.332;2022-12-18T02:42:31;13.10;;;7.80;;
69532;SDS011;56729;52.036;5.332;2022-12-18T02:43:34;11.43;;;5.88;;
69532;SDS011;56729;52.036;5.332;2022-12-18T02:44:44;12.82;;;8.20;;
69532;SDS011;56729;52.036;5.332;2022-12-18T02:45:55;10.52;;;6.45;;
69532;SDS011;56729;52.036;5.332;2022-12-18T02:47:01;10.73;;;5.55;;
69532;SDS011;56729;52.036;5.332;2022-12-18T02:48:03;11.18;;;6.95;;
69532;SDS011;56729;52.036;5.332;2022-12-18T02:51:39;12.20;;;8.23;;
69532;SDS011;56729;52.036;5.332;2022-12-18T02:56:53;11.88;;;6.38;;
69532;SDS011;56729;52.036;5.332;2022-12-18T02:57:46;13.25;;;7.18;;
69532;SDS011;56729;52.036;5.332;2022-12-18T02:59:09;14.95;;;6.90;;
69532;SDS011;56729;52.036;5.332;2022-12-18T03:00:33;12.60;;;5.78;;
69532;SDS011;56729;52.036;5.332;2022-12-18T03:01:43;9.40;;;6.55;;
69532;SDS011;56729;52.036;5.332;2022-12-18T03:04:20;15.30;;;8.15;;
69532;SDS011;56729;52.036;5.332;2022-12-18T03:05:44;13.82;;;6.63;;
69532;SDS011;56729;52.036;5.332;2022-12-18T03:06:57;13.00;;;5.90;;
69532;SDS011;56729;52.036;5.332;2022-12-18T03:08:13;16.58;;;8.00;;
69532;SDS011;56729;52.036;5.332;2022-12-18T03:09:32;22.83;;;8.68;;
69532;SDS011;56729;52.036;5.332;2022-12-18T03:11:00;14.25;;;8.13;;
69532;SDS011;56729;52.036;5.332;2022-12-18T03:12:21;12.10;;;7.88;;
69532;SDS011;56729;52.036;5.332;2022-12-18T03:13:43;11.13;;;5.55;;
69532;SDS011;56729;52.036;5.332;2022-12-18T03:16:07;12.70;;;7.20;;
69532;SDS011;56729;52.036;5.332;2022-12-18T03:17:13;9.88;;;6.72;;
69532;SDS011;56729;52.036;5.332;2022-12-18T03:18:24;16.48;;;7.45;;
69532;SDS011;56729;52.036;5.332;2022-12-18T03:19:32;9.50;;;5.68;;
69532;SDS011;56729;52.036;5.332;2022-12-18T03:20:36;10.88;;;7.90;;
69532;SDS011;56729;52.036;5.332;2022-12-18T03:21:47;10.88;;;5.80;;
69532;SDS011;56729;52.036;5.332;2022-12-18T03:23:00;15.50;;;7.80;;
69532;SDS011;56729;52.036;5.332;2022-12-18T03:24:09;9.25;;;6.53;;
69532;SDS011;56729;52.036;5.332;2022-12-18T03:25:14;28.52;;;7.82;;
69532;SDS011;56729;52.036;5.332;2022-12-18T03:26:19;12.00;;;6.97;;
69532;SDS011;56729;52.036;5.332;2022-12-18T03:27:29;10.68;;;7.07;;
69532;SDS011;56729;52.036;5.332;2022-12-18T03:28:39;11.57;;;5.10;;
69532;SDS011;56729;52.036;5.332;2022-12-18T03:29:47;11.27;;;6.30;;
69532;SDS011;56729;52.036;5.332;2022-12-18T03:30:58;11.68;;;6.95;;
69532;SDS011;56729;52.036;5.332;2022-12-18T03:32:07;11.68;;;7.60;;
69532;SDS011;56729;52.036;5.332;2022-12-18T03:33:26;14.07;;;6.35;;
69532;SDS011;56729;52.036;5.332;2022-12-18T03:34:33;12.57;;;6.30;;
69532;SDS011;56729;52.036;5.332;2022-12-18T03:35:41;9.85;;;6.03;;
69532;SDS011;56729;52.036;5.332;2022-12-18T03:36:46;10.90;;;7.13;;
69532;SDS011;56729;52.036;5.332;2022-12-18T03:37:48;13.32;;;7.50;;
69532;SDS011;56729;52.036;5.332;2022-12-18T03:38:51;11.50;;;7.28;;
69532;SDS011;56729;52.036;5.332;2022-12-18T03:39:55;11.75;;;7.38;;
69532;SDS011;56729;52.036;5.332;2022-12-18T03:43:55;12.48;;;7.30;;
69532;SDS011;56729;52.036;5.332;2022-12-18T03:45:27;12.73;;;6.53;;
69532;SDS011;56729;52.036;5.332;2022-12-18T03:48:59;12.25;;;6.30;;
69532;SDS011;56729;52.036;5.332;2022-12-18T03:50:23;8.68;;;6.57;;
69532;SDS011;56729;52.036;5.332;2022-12-18T03:51:35;10.15;;;5.85;;
69532;SDS011;56729;52.036;5.332;2022-12-18T03:52:45;11.60;;;5.95;;
69532;SDS011;56729;52.036;5.332;2022-12-18T03:53:59;8.77;;;5.00;;
69532;SDS011;56729;52.036;5.332;2022-12-18T03:55:07;13.10;;;7.10;;
69532;SDS011;56729;52.036;5.332;2022-12-18T03:56:12;7.88;;;4.97;;
69532;SDS011;56729;52.036;5.332;2022-12-18T03:57:20;9.90;;;5.13;;
69532;SDS011;56729;52.036;5.332;2022-12-18T03:58:27;12.75;;;6.25;;
69532;SDS011;56729;52.036;5.332;2022-12-18T03:59:43;7.68;;;5.43;;
69532;SDS011;56729;52.036;5.332;2022-12-18T04:00:52;10.02;;;6.22;;
69532;SDS011;56729;52.036;5.332;2022-12-18T04:01:57;8.32;;;5.65;;
69532;SDS011;56729;52.036;5.332;2022-12-18T04:03:01;6.97;;;5.25;;
69532;SDS011;56729;52.036;5.332;2022-12-18T04:04:12;7.95;;;5.50;;
69532;SDS011;56729;52.036;5.332;2022-12-18T04:05:17;14.20;;;6.13;;
69532;SDS011;56729;52.036;5.332;2022-12-18T04:06:23;12.60;;;6.68;;
69532;SDS011;56729;52.036;5.332;2022-12-18T04:07:26;8.00;;;5.07;;
69532;SDS011;56729;52.036;5.332;2022-12-18T04:08:31;5.50;;;4.20;;
69532;SDS011;56729;52.036;5.332;2022-12-18T04:09:38;10.00;;;5.65;;
69532;SDS011;56729;52.036;5.332;2022-12-18T04:10:42;9.75;;;5.30;;
69532;SDS011;56729;52.036;5.332;2022-12-18T04:11:45;7.15;;;3.83;;
69532;SDS011;56729;52.036;5.332;2022-12-18T04:12:49;12.02;;;7.43;;
69532;SDS011;56729;52.036;5.332;2022-12-18T04:13:55;8.25;;;5.75;;
69532;SDS011;56729;52.036;5.332;2022-12-18T04:14:58;8.43;;;5.57;;
69532;SDS011;56729;52.036;5.332;2022-12-18T04:16:01;11.15;;;6.30;;
69532;SDS011;56729;52.036;5.332;2022-12-18T04:17:03;11.52;;;5.30;;
69532;SDS011;56729;52.036;5.332;2022-12-18T04:18:07;10.50;;;5.05;;
69532;SDS011;56729;52.036;5.332;2022-12-18T04:19:13;10.30;;;5.13;;
69532;SDS011;56729;52.036;5.332;2022-12-18T04:20:17;14.20;;;4.57;;
69532;SDS011;56729;52.036;5.332;2022-12-18T04:21:20;8.45;;;4.50;;
69532;SDS011;56729;52.036;5.332;2022-12-18T04:22:23;7.78;;;4.82;;
69532;SDS011;56729;52.036;5.332;2022-12-18T04:23:30;6.07;;;3.88;;
69532;SDS011;56729;52.036;5.332;2022-12-18T04:24:33;6.85;;;4.68;;
69532;SDS011;56729;52.036;5.332;2022-12-18T04:25:42;6.68;;;4.90;;
69532;SDS011;56729;52.036;5.332;2022-12-18T04:26:49;9.00;;;6.00;;
69532;SDS011;56729;52.036;5.332;2022-12-18T04:27:56;6.35;;;4.45;;
69532;SDS011;56729;52.036;5.332;2022-12-18T04:28:58;10.60;;;6.32;;
69532;SDS011;56729;52.036;5.332;2022-12-18T04:30:01;8.90;;;4.68;;
69532;SDS011;56729;52.036;5.332;2022-12-18T04:31:04;10.50;;;5.75;;
69532;SDS011;56729;52.036;5.332;2022-12-18T04:32:08;11.77;;;7.07;;
69532;SDS011;56729;52.036;5.332;2022-12-18T04:33:12;13.57;;;5.80;;
69532;SDS011;56729;52.036;5.332;2022-12-18T04:34:17;12.70;;;5.28;;
69532;SDS011;56729;52.036;5.332;2022-12-18T04:35:26;5.50;;;4.72;;
69532;SDS011;56729;52.036;5.332;2022-12-18T04:36:29;4.75;;;3.97;;
69532;SDS011;56729;52.036;5.332;2022-12-18T04:37:32;8.75;;;5.97;;
69532;SDS011;56729;52.036;5.332;2022-12-18T04:38:39;12.48;;;6.43;;
69532;SDS011;56729;52.036;5.332;2022-12-18T04:39:45;12.65;;;6.30;;
69532;SDS011;56729;52.036;5.332;2022-12-18T04:40:55;6.47;;;4.43;;
69532;SDS011;56729;52.036;5.332;2022-12-18T04:42:00;8.25;;;5.70;;
69532;SDS011;56729;52.036;5.332;2022-12-18T04:43:03;9.55;;;4.75;;
69532;SDS011;56729;52.036;5.332;2022-12-18T04:44:05;12.50;;;5.82;;
69532;SDS011;56729;52.036;5.332;2022-12-18T04:45:07;6.88;;;4.50;;
69532;SDS011;56729;52.036;5.332;2022-12-18T04:46:10;12.75;;;4.68;;
69532;SDS011;56729;52.036;5.332;2022-12-18T04:47:12;9.48;;;5.22;;
69532;SDS011;56729;52.036;5.332;2022-12-18T04:48:14;7.00;;;4.82;;
69532;SDS011;56729;52.036;5.332;2022-12-18T04:49:17;11.85;;;5.50;;
69532;SDS011;56729;52.036;5.332;2022-12-18T04:50:19;8.25;;;6.10;;
69532;SDS011;56729;52.036;5.332;2022-12-18T04:51:21;14.60;;;8.52;;
69532;SDS011;56729;52.036;5.332;2022-12-18T04:52:27;5.93;;;5.22;;
69532;SDS011;56729;52.036;5.332;2022-12-18T04:53:32;7.40;;;4.57;;
69532;SDS011;56729;52.036;5.332;2022-12-18T04:54:34;10.93;;;6.45;;
69532;SDS011;56729;52.036;5.332;2022-12-18T04:55:36;8.18;;;4.72;;
69532;SDS011;56729;52.036;5.332;2022-12-18T04:56:39;6.90;;;4.88;;
69532;SDS011;56729;52.036;5.332;2022-12-18T04:57:41;9.65;;;6.78;;
69532;SDS011;56729;52.036;5.332;2022-12-18T04:58:43;6.88;;;4.85;;
69532;SDS011;56729;52.036;5.332;2022-12-18T04:59:45;7.18;;;4.22;;
69532;SDS011;56729;52.036;5.332;2022-12-18T05:00:47;6.35;;;4.78;;
69532;SDS011;56729;52.036;5.332;2022-12-18T05:01:49;10.25;;;5.38;;
69532;SDS011;56729;52.036;5.332;2022-12-18T05:02:51;7.38;;;4.57;;
69532;SDS011;56729;52.036;5.332;2022-12-18T05:03:54;5.70;;;3.90;;
69532;SDS011;56729;52.036;5.332;2022-12-18T05:04:56;7.78;;;4.80;;
69532;SDS011;56729;52.036;5.332;2022-12-18T05:05:58;8.93;;;4.53;;
69532;SDS011;56729;52.036;5.332;2022-12-18T05:07:00;6.30;;;4.57;;
69532;SDS011;56729;52.036;5.332;2022-12-18T05:08:02;9.30;;;5.53;;
69532;SDS011;56729;52.036;5.332;2022-12-18T05:09:04;6.88;;;4.20;;
69532;SDS011;56729;52.036;5.332;2022-12-18T05:10:06;8.60;;;6.00;;
69532;SDS011;56729;52.036;5.332;2022-12-18T05:11:09;6.90;;;4.20;;
69532;SDS011;56729;52.036;5.332;2022-12-18T05:12:13;8.18;;;3.95;;
69532;SDS011;56729;52.036;5.332;2022-12-18T05:13:15;7.22;;;5.70;;
69532;SDS011;56729;52.036;5.332;2022-12-18T05:14:17;5.82;;;3.45;;
69532;SDS011;56729;52.036;5.332;2022-12-18T05:15:18;5.38;;;2.90;;
69532;SDS011;56729;52.036;5.332;2022-12-18T05:16:20;5.60;;;3.50;;
69532;SDS011;56729;52.036;5.332;2022-12-18T05:17:24;7.43;;;4.55;;
69532;SDS011;56729;52.036;5.332;2022-12-18T05:18:26;6.28;;;4.00;;
69532;SDS011;56729;52.036;5.332;2022-12-18T05:19:28;7.00;;;4.32;;
69532;SDS011;56729;52.036;5.332;2022-12-18T05:20:31;8.07;;;5.57;;
69532;SDS011;56729;52.036;5.332;2022-12-18T05:21:33;10.45;;;5.07;;
69532;SDS011;56729;52.036;5.332;2022-12-18T05:22:34;12.32;;;5.70;;
69532;SDS011;56729;52.036;5.332;2022-12-18T05:23:37;7.13;;;4.10;;
69532;SDS011;56729;52.036;5.332;2022-12-18T05:24:39;7.38;;;3.88;;
69532;SDS011;56729;52.036;5.332;2022-12-18T05:25:41;5.57;;;3.97;;
69532;SDS011;56729;52.036;5.332;2022-12-18T05:26:45;9.15;;;4.82;;
69532;SDS011;56729;52.036;5.332;2022-12-18T05:27:48;5.00;;;3.55;;
69532;SDS011;56729;52.036;5.332;2022-12-18T05:28:50;7.28;;;4.28;;
69532;SDS011;56729;52.036;5.332;2022-12-18T05:29:52;7.20;;;4.43;;
69532;SDS011;56729;52.036;5.332;2022-12-18T05:30:55;7.38;;;3.90;;
69532;SDS011;56729;52.036;5.332;2022-12-18T05:31:59;14.30;;;3.72;;
69532;SDS011;56729;52.036;5.332;2022-12-18T05:33:01;8.55;;;4.82;;
69532;SDS011;56729;52.036;5.332;2022-12-18T05:34:03;7.35;;;4.95;;
69532;SDS011;56729;52.036;5.332;2022-12-18T05:35:05;7.95;;;4.35;;
69532;SDS011;56729;52.036;5.332;2022-12-18T05:36:09;7.63;;;4.68;;
69532;SDS011;56729;52.036;5.332;2022-12-18T05:37:11;6.93;;;4.47;;
69532;SDS011;56729;52.036;5.332;2022-12-18T05:38:13;10.45;;;6.43;;
69532;SDS011;56729;52.036;5.332;2022-12-18T05:39:15;5.70;;;3.95;;
69532;SDS011;56729;52.036;5.332;2022-12-18T05:40:17;7.22;;;3.90;;
69532;SDS011;56729;52.036;5.332;2022-12-18T05:41:19;6.45;;;5.20;;
69532;SDS011;56729;52.036;5.332;2022-12-18T05:42:21;4.32;;;3.13;;
69532;SDS011;56729;52.036;5.332;2022-12-18T05:43:24;7.50;;;4.22;;
69532;SDS011;56729;52.036;5.332;2022-12-18T05:44:27;6.75;;;3.70;;
69532;SDS011;56729;52.036;5.332;2022-12-18T05:45:29;7.13;;;4.03;;
69532;SDS011;56729;52.036;5.332;2022-12-18T05:46:31;5.40;;;3.38;;
69532;SDS011;56729;52.036;5.332;2022-12-18T05:47:34;4.47;;;2.05;;
69532;SDS011;56729;52.036;5.332;2022-12-18T05:48:37;8.18;;;4.43;;
69532;SDS011;56729;52.036;5.332;2022-12-18T05:49:39;9.25;;;5.47;;
69532;SDS011;56729;52.036;5.332;2022-12-18T05:50:41;8.65;;;4.93;;
69532;SDS011;56729;52.036;5.332;2022-12-18T05:51:46;8.77;;;3.88;;
69532;SDS011;56729;52.036;5.332;2022-12-18T05:52:48;7.20;;;4.47;;
69532;SDS011;56729;52.036;5.332;2022-12-18T05:53:50;4.95;;;3.83;;
69532;SDS011;56729;52.036;5.332;2022-12-18T05:54:52;4.13;;;2.92;;
69532;SDS011;56729;52.036;5.332;2022-12-18T05:55:59;7.70;;;5.70;;
69532;SDS011;56729;52.036;5.332;2022-12-18T05:57:02;7.43;;;3.22;;
69532;SDS011;56729;52.036;5.332;2022-12-18T05:58:04;7.72;;;3.75;;
69532;SDS011;56729;52.036;5.332;2022-12-18T05:59:07;7.55;;;4.32;;
69532;SDS011;56729;52.036;5.332;2022-12-18T06:00:11;7.78;;;6.60;;
69532;SDS011;56729;52.036;5.332;2022-12-18T06:01:14;9.43;;;5.47;;
69532;SDS011;56729;52.036;5.332;2022-12-18T06:02:18;5.85;;;3.45;;
69532;SDS011;56729;52.036;5.332;2022-12-18T06:03:22;7.32;;;3.72;;
69532;SDS011;56729;52.036;5.332;2022-12-18T06:04:32;7.38;;;3.70;;
69532;SDS011;56729;52.036;5.332;2022-12-18T06:05:36;4.15;;;3.67;;
69532;SDS011;56729;52.036;5.332;2022-12-18T06:06:40;8.63;;;4.50;;
69532;SDS011;56729;52.036;5.332;2022-12-18T06:07:42;5.50;;;3.55;;
69532;SDS011;56729;52.036;5.332;2022-12-18T06:08:44;6.78;;;5.28;;
69532;SDS011;56729;52.036;5.332;2022-12-18T06:09:47;6.43;;;4.53;;
69532;SDS011;56729;52.036;5.332;2022-12-18T06:10:50;6.78;;;2.95;;
69532;SDS011;56729;52.036;5.332;2022-12-18T06:11:53;6.05;;;3.35;;
69532;SDS011;56729;52.036;5.332;2022-12-18T06:12:56;5.78;;;3.75;;
69532;SDS011;56729;52.036;5.332;2022-12-18T06:13:57;6.22;;;4.25;;
69532;SDS011;56729;52.036;5.332;2022-12-18T06:15:01;6.68;;;5.05;;
69532;SDS011;56729;52.036;5.332;2022-12-18T06:16:06;8.95;;;5.60;;
69532;SDS011;56729;52.036;5.332;2022-12-18T06:17:09;6.63;;;4.32;;
69532;SDS011;56729;52.036;5.332;2022-12-18T06:18:11;6.55;;;3.17;;
69532;SDS011;56729;52.036;5.332;2022-12-18T06:19:14;8.63;;;4.25;;
69532;SDS011;56729;52.036;5.332;2022-12-18T06:20:17;4.90;;;4.22;;
69532;SDS011;56729;52.036;5.332;2022-12-18T06:21:19;7.65;;;4.45;;
69532;SDS011;56729;52.036;5.332;2022-12-18T06:22:21;8.27;;;4.22;;
69532;SDS011;56729;52.036;5.332;2022-12-18T06:23:23;6.22;;;3.33;;
69532;SDS011;56729;52.036;5.332;2022-12-18T06:24:26;7.10;;;4.05;;
69532;SDS011;56729;52.036;5.332;2022-12-18T06:25:27;4.57;;;2.92;;
69532;SDS011;56729;52.036;5.332;2022-12-18T06:26:30;5.97;;;3.35;;
69532;SDS011;56729;52.036;5.332;2022-12-18T06:27:31;4.70;;;2.60;;
69532;SDS011;56729;52.036;5.332;2022-12-18T06:28:35;10.07;;;3.13;;
69532;SDS011;56729;52.036;5.332;2022-12-18T06:29:38;14.50;;;4.70;;
69532;SDS011;56729;52.036;5.332;2022-12-18T06:30:40;5.50;;;4.28;;
69532;SDS011;56729;52.036;5.332;2022-12-18T06:31:45;7.60;;;4.80;;
69532;SDS011;56729;52.036;5.332;2022-12-18T06:32:50;6.50;;;4.47;;
69532;SDS011;56729;52.036;5.332;2022-12-18T06:33:57;7.15;;;4.00;;
69532;SDS011;56729;52.036;5.332;2022-12-18T06:34:59;6.10;;;4.47;;
69532;SDS011;56729;52.036;5.332;2022-12-18T06:36:05;5.70;;;3.85;;
69532;SDS011;56729;52.036;5.332;2022-12-18T06:37:09;6.50;;;3.83;;
69532;SDS011;56729;52.036;5.332;2022-12-18T06:38:10;6.65;;;4.45;;
69532;SDS011;56729;52.036;5.332;2022-12-18T06:39:12;8.30;;;5.07;;
69532;SDS011;56729;52.036;5.332;2022-12-18T06:40:14;7.32;;;3.88;;
69532;SDS011;56729;52.036;5.332;2022-12-18T06:41:17;7.95;;;3.75;;
69532;SDS011;56729;52.036;5.332;2022-12-18T06:42:21;6.97;;;4.03;;
69532;SDS011;56729;52.036;5.332;2022-12-18T06:43:23;5.65;;;3.97;;
69532;SDS011;56729;52.036;5.332;2022-12-18T06:44:25;4.63;;;2.47;;
69532;SDS011;56729;52.036;5.332;2022-12-18T06:45:27;6.47;;;4.90;;
69532;SDS011;56729;52.036;5.332;2022-12-18T06:46:30;10.07;;;4.65;;
69532;SDS011;56729;52.036;5.332;2022-12-18T06:47:33;7.10;;;4.03;;
69532;SDS011;56729;52.036;5.332;2022-12-18T06:48:35;4.78;;;2.92;;
69532;SDS011;56729;52.036;5.332;2022-12-18T06:49:37;6.32;;;4.47;;
69532;SDS011;56729;52.036;5.332;2022-12-18T06:50:41;5.32;;;4.05;;
69532;SDS011;56729;52.036;5.332;2022-12-18T06:51:43;11.18;;;4.88;;
69532;SDS011;56729;52.036;5.332;2022-12-18T06:52:46;4.90;;;3.05;;
69532;SDS011;56729;52.036;5.332;2022-12-18T06:53:48;4.78;;;3.15;;
69532;SDS011;56729;52.036;5.332;2022-12-18T06:54:50;5.45;;;4.40;;
69532;SDS011;56729;52.036;5.332;2022-12-18T06:55:51;8.52;;;4.65;;